CYVM/YVM METAR and TAF weather

Enter ICAO airport designator
Station Type Date Time Source
CYVM METAR 2021/07/29 02:40 UTC NOAA

CYVM 290240Z AUTO 21006KT 3SM BR SCT001 05/05 A2994 RMK SLP140


Station Type Date Time Source
CYVM Decoded METAR 2021/07/29 02:40 UTC NOAA

Broughton Island Airport, Canada (CYVM) 67-33N 064-02W
Jul 28, 2021 - 10:40 PM EDT / 2021.07.29 0240 UTC
Wind: from the SSW (210 degrees) at 7 MPH (6 KT):0
Visibility: 3 mile(s):0
Sky conditions: partly cloudy
Weather: mist
Temperature: 41 F (5 C)
Dew Point: 41 F (5 C)
Relative Humidity: 100%
Pressure (altimeter): 29.94 in. Hg (1013 hPa)
ob: CYVM 290240Z AUTO 21006KT 3SM BR SCT001 05/05 A2994 RMK SLP140
cycle: 2

Station Type Date Time Source
CYVM TAF 2021/07/29 01:39 UTC NOAA

TAF TAF CYVM 290038Z 2901/2913 22005KT 6SM BR OVC012
TEMPO 2901/2904 1SM -DZ BR OVC004
FM290400 20007KT P6SM BKN015
TEMPO 2904/2907 SCT015
FM290700 20008KT P6SM FEW015
RMK FCST BASED ON AUTO OBS. NXT FCST BY 290700Z

Example: see airport list